Time;durP1;ratioP1;P1;durP2;ratioP2;P2;SDS_P1;SDS_P2;PMS_P1;PMS_P2;Temp;Humidity;BMP_temperature;BMP_pressure;BME280_temperature;BME280_humidity;BME280_pressure;Samples;Min_cycle;Max_cycle;Signal;HPM_P1;HPM_P2
2022/09/08 00:01:25;;;;;;;;;;;;;;;19.51;84.36;98365.97;5073448;28;20379;-50
2022/09/08 00:03:51;;;;;;;;;;;;;;;19.38;82.97;98371.00;5073434;28;20361;-49
2022/09/08 00:06:18;;;;;;;;;;;;;;;19.32;82.49;98371.03;5073285;28;20566;-50
2022/09/08 00:08:45;;;;;;;;;;;;;;;19.36;80.49;98374.75;5073293;28;20408;-50
2022/09/08 00:11:12;;;;;;;;;;;;;;;19.38;79.28;98371.00;5073199;28;20382;-49
2022/09/08 00:13:39;;;;;;;;;;;;;;;19.31;80.79;98373.94;5073191;28;20015;-49
2022/09/08 00:16:07;;;;;;;;;;;;;;;19.33;82.81;98377.94;5073152;28;19920;-50
2022/09/08 00:18:33;;;;;;;;;;;;;;;19.39;83.69;98370.75;5073124;28;19923;-49
2022/09/08 00:20:58;;;;;;;;;;;;;;;19.50;83.70;98366.25;5073031;28;19923;-49
2022/09/08 00:23:27;;;;;;;;;;;;;;;19.49;82.37;98376.06;5055094;28;19995;-50
2022/09/08 00:25:56;;;;;;;;;;;;;;;19.42;81.78;98369.41;5072698;28;19924;-49
2022/09/08 00:28:21;;;;;;;;;;;;;;;19.37;83.09;98375.53;5072940;28;20331;-50
2022/09/08 00:30:47;;;;;;;;;;;;;;;19.54;84.39;98367.31;5072865;28;19920;-50
2022/09/08 00:33:12;;;;;;;;;;;;;;;19.90;85.49;98375.28;5072885;28;19943;-50
2022/09/08 00:35:41;;;;;;;;;;;;;;;20.14;85.07;98373.66;5072791;28;19930;-50
2022/09/08 00:38:07;;;;;;;;;;;;;;;20.09;84.56;98376.31;5072778;28;19962;-50
2022/09/08 00:40:39;;;;;;;;;;;;;;;20.18;85.62;98365.09;5072709;28;19917;-50
2022/09/08 00:43:05;;;;;;;;;;;;;;;20.29;84.12;98372.00;5054786;28;19917;-50
2022/09/08 00:45:33;;;;;;;;;;;;;;;20.18;83.12;98368.56;5054620;28;19923;-50
2022/09/08 00:48:00;;;;;;;;;;;;;;;20.03;82.66;98366.75;5072631;28;19955;-50
2022/09/08 00:50:28;;;;;;;;;;;;;;;19.88;82.36;98366.75;5072543;28;19950;-49
2022/09/08 00:53:01;;;;;;;;;;;;;;;19.91;84.71;98372.34;5072586;28;19924;-49
2022/09/08 00:55:31;;;;;;;;;;;;;;;20.13;86.03;98364.06;5072135;28;20011;-48
2022/09/08 00:57:57;;;;;;;;;;;;;;;20.07;86.11;98375.00;5072495;28;19925;-49
2022/09/08 01:00:22;;;;;;;;;;;;;;;20.32;87.53;98371.47;5072436;28;19947;-49
2022/09/08 01:02:48;;;;;;;;;;;;;;;20.59;86.71;98379.13;5054411;28;20073;-49
2022/09/08 01:05:15;;;;;;;;;;;;;;;20.50;85.69;98370.06;5072317;28;20023;-49
2022/09/08 01:13:21;;;;;;;;;;;;;;;21.49;85.74;98367.41;5072684;28;20298;-49
2022/09/08 01:15:47;;;;;;;;;;;;;;;21.63;84.85;98367.56;5072181;28;19924;-49
2022/09/08 01:18:12;;;;;;;;;;;;;;;21.62;83.93;98387.31;5054196;28;19921;-49
2022/09/08 01:20:47;;;;;;;;;;;;;;;21.58;82.74;98410.31;5072219;28;19942;-49
2022/09/08 01:23:24;;;;;;;;;;;;;;;21.48;79.98;98413.06;5072223;28;19968;-49
2022/09/08 01:26:19;;;;;;;;;;;;;;;21.30;79.87;98414.50;5071669;28;19927;-49
2022/09/08 01:28:47;;;;;;;;;;;;;;;21.28;79.19;98430.78;4993650;28;19922;-49
2022/09/08 01:31:13;;;;;;;;;;;;;;;21.34;80.43;98427.00;5010309;28;20407;-49
2022/09/08 01:33:39;;;;;;;;;;;;;;;21.48;79.78;98437.09;4993643;28;20425;-49
2022/09/08 01:36:13;;;;;;;;;;;;;;;21.63;81.23;98433.50;4993613;28;20016;-49
2022/09/08 01:38:38;;;;;;;;;;;;;;;21.68;79.82;98430.81;5010043;28;19922;-49
2022/09/08 01:41:04;;;;;;;;;;;;;;;21.68;81.41;98436.16;4993611;28;20458;-49
2022/09/08 01:43:29;;;;;;;;;;;;;;;21.65;80.32;98436.69;5010118;28;19917;-51
2022/09/08 01:45:55;;;;;;;;;;;;;;;21.49;81.57;98438.69;5009923;28;20023;-50
2022/09/08 01:48:21;;;;;;;;;;;;;;;21.68;82.86;98433.47;4993641;28;19918;-50
2022/09/08 01:50:47;;;;;;;;;;;;;;;21.91;82.87;98434.63;5010030;28;19940;-50
2022/09/08 01:53:12;;;;;;;;;;;;;;;22.01;83.11;98431.06;5010028;28;19917;-50
2022/09/08 01:55:37;;;;;;;;;;;;;;;22.17;82.87;98424.47;4993466;28;20007;-50
2022/09/08 01:58:03;;;;;;;;;;;;;;;22.40;82.74;98430.97;4993523;28;20024;-50
2022/09/08 02:00:28;;;;;;;;;;;;;;;22.54;82.06;98437.22;5009962;28;19924;-50
2022/09/08 02:02:55;;;;;;;;;;;;;;;22.51;80.70;98437.78;5009972;28;19918;-50
2022/09/08 02:05:22;;;;;;;;;;;;;;;22.44;81.03;98434.66;5046803;28;20302;-50
2022/09/08 02:07:47;;;;;;;;;;;;;;;22.34;81.27;98440.13;5073331;28;19920;-50
2022/09/08 02:10:13;;;;;;;;;;;;;;;22.26;81.40;98454.13;5075587;28;19965;-50
2022/09/08 02:12:38;;;;;;;;;;;;;;;22.24;80.33;98458.94;5075523;28;20340;-50
2022/09/08 02:15:04;;;;;;;;;;;;;;;22.37;80.96;98458.25;5057491;28;19917;-49
2022/09/08 02:17:30;;;;;;;;;;;;;;;22.43;79.87;98461.69;5057484;28;19920;-50
2022/09/08 02:19:55;;;;;;;;;;;;;;;21.98;76.87;98459.16;5057475;28;19928;-50
2022/09/08 02:22:21;;;;;;;;;;;;;;;21.77;79.83;98463.06;5075344;28;19923;-50
2022/09/08 02:24:46;;;;;;;;;;;;;;;21.97;81.81;98465.56;5057053;28;20302;-50
2022/09/08 02:27:11;;;;;;;;;;;;;;;22.09;81.92;98462.50;5075296;28;20309;-50
2022/09/08 02:29:40;;;;;;;;;;;;;;;22.13;81.93;98469.72;5057189;28;19928;-49
2022/09/08 02:32:05;;;;;;;;;;;;;;;22.12;81.70;98465.44;5057246;28;19917;-50
2022/09/08 02:34:31;;;;;;;;;;;;;;;22.05;81.67;98478.31;5075136;28;19916;-50
2022/09/08 02:36:56;;;;;;;;;;;;;;;21.94;81.11;98479.50;5075120;28;19923;-50
2022/09/08 02:39:22;;;;;;;;;;;;;;;21.84;81.14;98477.69;5075084;28;19912;-50
2022/09/08 02:41:47;;;;;;;;;;;;;;;21.78;80.71;98476.13;5056966;28;19920;-50
2022/09/08 02:44:14;;;;;;;;;;;;;;;21.66;80.50;98481.81;5057047;28;20102;-50
2022/09/08 02:46:40;;;;;;;;;;;;;;;21.47;80.71;98480.88;5074909;28;19916;-51
2022/09/08 02:49:06;;;;;;;;;;;;;;;21.45;81.30;98480.34;5074960;28;19917;-51
2022/09/08 02:51:31;;;;;;;;;;;;;;;21.57;81.53;98483.50;5074893;28;19927;-50
2022/09/08 02:53:57;;;;;;;;;;;;;;;21.62;80.88;98482.66;5074851;28;20417;-50
2022/09/08 02:56:23;;;;;;;;;;;;;;;21.62;78.89;98483.47;5074749;28;19955;-50
2022/09/08 02:58:48;;;;;;;;;;;;;;;21.66;78.75;98484.50;5074714;28;19924;-48
2022/09/08 03:01:14;;;;;;;;;;;;;;;21.70;79.05;98480.19;5056690;28;19938;-48
2022/09/08 03:03:39;;;;;;;;;;;;;;;21.71;79.35;98484.47;5074648;28;19916;-49
2022/09/08 03:06:08;;;;;;;;;;;;;;;21.79;78.96;98484.94;5074521;28;20358;-49
2022/09/08 03:08:34;;;;;;;;;;;;;;;21.82;78.20;98490.53;5074572;28;20282;-48
2022/09/08 03:11:00;;;;;;;;;;;;;;;21.78;77.78;98492.16;5074398;28;19922;-48
2022/09/08 03:13:26;;;;;;;;;;;;;;;21.64;77.21;98489.31;5056427;28;19926;-48
2022/09/08 03:15:51;;;;;;;;;;;;;;;21.61;76.83;98495.22;5074347;28;19923;-48
2022/09/08 03:18:17;;;;;;;;;;;;;;;21.40;76.10;98488.38;5056015;28;19917;-47
2022/09/08 03:20:43;;;;;;;;;;;;;;;21.16;76.10;98486.38;5056310;28;19923;-48
2022/09/08 03:23:14;;;;;;;;;;;;;;;21.24;76.97;98482.31;5056301;28;20408;-50
2022/09/08 03:25:40;;;;;;;;;;;;;;;21.34;76.65;98492.94;5073932;28;20444;-50
2022/09/08 03:28:06;;;;;;;;;;;;;;;21.30;76.21;98490.03;5074161;28;19921;-49
2022/09/08 03:30:31;;;;;;;;;;;;;;;21.27;75.78;98484.44;5074137;28;19917;-50
2022/09/08 03:32:58;;;;;;;;;;;;;;;21.24;75.20;98487.66;5074126;28;20310;-50
2022/09/08 03:35:23;;;;;;;;;;;;;;;21.33;75.59;98496.69;5056058;28;19959;-50
2022/09/08 03:37:49;;;;;;;;;;;;;;;21.32;75.62;98495.88;5073954;28;20519;-50
2022/09/08 03:40:16;;;;;;;;;;;;;;;21.37;75.27;98502.28;5073931;28;19955;-48
2022/09/08 03:42:42;;;;;;;;;;;;;;;21.36;74.57;98498.81;5073855;28;20437;-49
2022/09/08 03:45:14;;;;;;;;;;;;;;;21.22;74.40;98505.81;5073728;28;19921;-49
2022/09/08 03:47:40;;;;;;;;;;;;;;;21.13;74.79;98501.06;5073798;28;20302;-48
2022/09/08 03:50:06;;;;;;;;;;;;;;;20.98;74.46;98505.66;5073911;28;20289;-49
2022/09/08 03:52:31;;;;;;;;;;;;;;;20.71;74.42;98512.94;5073688;28;20011;-48
2022/09/08 03:54:57;;;;;;;;;;;;;;;20.58;75.25;98507.34;5055656;28;19916;-48
2022/09/08 03:57:24;;;;;;;;;;;;;;;20.81;75.39;98506.00;5055630;28;20007;-48
2022/09/08 03:59:51;;;;;;;;;;;;;;;21.08;75.25;98502.94;5073540;28;19964;-49
2022/09/08 04:02:17;;;;;;;;;;;;;;;21.19;74.51;98506.34;5073375;28;19920;-48
2022/09/08 04:04:43;;;;;;;;;;;;;;;21.33;74.63;98507.38;5073244;28;19917;-50
2022/09/08 04:07:09;;;;;;;;;;;;;;;21.38;73.98;98511.88;5055450;28;19917;-51
2022/09/08 04:09:35;;;;;;;;;;;;;;;21.45;73.81;98513.22;5073339;28;20405;-50
2022/09/08 04:12:01;;;;;;;;;;;;;;;21.35;71.96;98511.38;5073361;28;19931;-50
2022/09/08 04:14:26;;;;;;;;;;;;;;;21.09;71.30;98507.22;5055279;28;19916;-50
2022/09/08 04:16:52;;;;;;;;;;;;;;;20.82;71.68;98508.38;5073207;28;20279;-50
2022/09/08 04:19:17;;;;;;;;;;;;;;;20.57;72.10;98501.22;5073121;28;20301;-50
2022/09/08 04:21:43;;;;;;;;;;;;;;;20.39;72.88;98502.59;5055053;28;19916;-50
2022/09/08 04:24:08;;;;;;;;;;;;;;;20.51;73.72;98503.09;5073006;28;20305;-50
2022/09/08 04:26:34;;;;;;;;;;;;;;;20.61;73.43;98501.50;5051405;28;19924;-50
2022/09/08 04:29:01;;;;;;;;;;;;;;;20.77;73.82;98508.41;5053002;28;19923;-50
2022/09/08 04:31:27;;;;;;;;;;;;;;;20.99;73.07;98518.72;5052231;28;19956;-50
2022/09/08 04:33:52;;;;;;;;;;;;;;;21.05;72.84;98506.97;5052911;28;19959;-50
2022/09/08 04:36:19;;;;;;;;;;;;;;;21.14;72.37;98507.97;5053090;28;19921;-50
2022/09/08 04:38:44;;;;;;;;;;;;;;;21.16;72.00;98513.06;5052796;28;19917;-50
2022/09/08 04:41:12;;;;;;;;;;;;;;;21.19;71.91;98519.69;5052751;28;20291;-49
2022/09/08 04:43:38;;;;;;;;;;;;;;;21.21;71.30;98517.56;5051430;28;19916;-50
2022/09/08 04:46:05;;;;;;;;;;;;;;;21.03;71.52;98522.44;5051315;28;19947;-49
2022/09/08 04:48:31;;;;;;;;;;;;;;;20.81;72.19;98522.78;5052621;28;19917;-50
2022/09/08 04:50:57;;;;;;;;;;;;;;;20.86;72.70;98533.44;5052527;28;19923;-50
2022/09/08 04:53:23;;;;;;;;;;;;;;;20.99;72.24;98529.41;5052582;28;19916;-50
2022/09/08 04:55:49;;;;;;;;;;;;;;;20.77;72.20;98521.75;5051209;28;19917;-50
2022/09/08 04:58:14;;;;;;;;;;;;;;;20.50;72.56;98522.00;5052509;28;20302;-47
2022/09/08 05:00:39;;;;;;;;;;;;;;;20.30;73.03;98514.84;5051127;28;19928;-50
2022/09/08 05:03:05;;;;;;;;;;;;;;;20.28;73.13;98528.47;5051138;28;19917;-49
2022/09/08 05:05:30;;;;;;;;;;;;;;;20.24;73.16;98526.56;5051030;28;19917;-49
2022/09/08 05:07:56;;;;;;;;;;;;;;;20.13;73.19;98534.56;5052388;28;20379;-49
2022/09/08 05:10:22;;;;;;;;;;;;;;;19.86;73.53;98536.69;5052280;28;19936;-49
2022/09/08 05:12:50;;;;;;;;;;;;;;;19.65;74.01;98536.63;5052577;28;19916;-48
2022/09/08 05:15:16;;;;;;;;;;;;;;;19.20;74.22;98540.75;5052247;28;19966;-50
2022/09/08 05:17:41;;;;;;;;;;;;;;;18.94;74.92;98550.47;5052236;28;20306;-51
2022/09/08 05:20:07;;;;;;;;;;;;;;;18.77;75.45;98539.97;5052193;28;20011;-49
2022/09/08 05:22:33;;;;;;;;;;;;;;;18.99;76.22;98547.03;5052173;28;19917;-49
2022/09/08 05:25:00;;;;;;;;;;;;;;;19.20;75.38;98545.28;5056549;28;19959;-48
2022/09/08 05:27:25;;;;;;;;;;;;;;;19.48;75.49;98541.38;5072177;28;19923;-48
2022/09/08 05:29:50;;;;;;;;;;;;;;;19.52;74.64;98537.13;5072125;28;20003;-48
2022/09/08 05:32:16;;;;;;;;;;;;;;;19.70;74.77;98531.31;5054039;28;20386;-49
2022/09/08 05:34:42;;;;;;;;;;;;;;;20.31;73.70;98545.78;5071987;28;19916;-47
2022/09/08 05:37:07;;;;;;;;;;;;;;;21.14;72.17;98537.34;5054018;28;19927;-49
2022/09/08 05:39:33;;;;;;;;;;;;;;;21.98;70.04;98533.97;5071979;28;19917;-48
2022/09/08 05:41:59;;;;;;;;;;;;;;;22.75;68.14;98533.31;5074165;28;20409;-49
2022/09/08 05:44:24;;;;;;;;;;;;;;;23.45;66.29;98540.78;5076357;28;19924;-49
2022/09/08 05:46:50;;;;;;;;;;;;;;;23.78;64.69;98543.56;5075997;28;19917;-48
2022/09/08 05:49:15;;;;;;;;;;;;;;;24.21;64.00;98531.94;5076099;28;19950;-48
2022/09/08 05:51:40;;;;;;;;;;;;;;;24.49;62.56;98536.28;5075949;28;19917;-51
2022/09/08 05:54:06;;;;;;;;;;;;;;;24.47;59.14;98548.41;5057954;28;19995;-48
2022/09/08 05:56:32;;;;;;;;;;;;;;;24.16;58.79;98548.91;5075875;28;19922;-49
2022/09/08 05:58:58;;;;;;;;;;;;;;;24.30;59.91;98552.41;5057918;28;19920;-47
2022/09/08 06:01:24;;;;;;;;;;;;;;;24.37;58.04;98549.38;5057799;28;19963;-45
2022/09/08 06:03:53;;;;;;;;;;;;;;;24.12;58.08;98555.94;5057837;28;19916;-46
2022/09/08 06:06:18;;;;;;;;;;;;;;;23.92;58.35;98557.03;5057614;28;20023;-47
2022/09/08 06:08:44;;;;;;;;;;;;;;;23.77;57.86;98560.75;5075941;28;19951;-46
2022/09/08 06:11:10;;;;;;;;;;;;;;;23.52;58.28;98560.00;5057615;28;20283;-46
2022/09/08 06:13:36;;;;;;;;;;;;;;;23.31;59.48;98559.44;5075554;28;19916;-47
2022/09/08 06:16:02;;;;;;;;;;;;;;;23.22;59.43;98560.38;5075527;28;19917;-47
2022/09/08 06:18:28;;;;;;;;;;;;;;;22.97;60.71;98567.59;5075437;28;19969;-47
2022/09/08 06:20:53;;;;;;;;;;;;;;;22.99;61.24;98568.09;5075396;28;19916;-47
2022/09/08 06:23:19;;;;;;;;;;;;;;;23.04;60.21;98573.44;5075388;28;19924;-47
2022/09/08 06:25:45;;;;;;;;;;;;;;;22.97;60.71;98575.63;5057011;28;19927;-47
2022/09/08 06:28:11;;;;;;;;;;;;;;;22.98;60.42;98565.69;5075188;28;20390;-46
2022/09/08 06:30:37;;;;;;;;;;;;;;;22.97;60.43;98567.59;5075201;28;19917;-47
2022/09/08 06:33:10;;;;;;;;;;;;;;;23.15;61.17;98570.66;5075235;28;20368;-46
2022/09/08 06:35:39;;;;;;;;;;;;;;;23.32;60.02;98574.44;5057213;28;20305;-47
2022/09/08 06:38:10;;;;;;;;;;;;;;;23.62;59.23;98575.13;5075145;28;19966;-47
2022/09/08 06:40:40;;;;;;;;;;;;;;;24.00;59.10;98569.00;5075008;28;19916;-47
2022/09/08 06:43:24;;;;;;;;;;;;;;;25.18;55.94;98567.75;5075032;28;19999;-46
2022/09/08 06:45:52;;;;;;;;;;;;;;;26.43;54.79;98564.75;5074850;28;19921;-49
2022/09/08 06:48:26;;;;;;;;;;;;;;;27.35;50.13;98564.22;5075234;28;20299;-47
2022/09/08 06:50:59;;;;;;;;;;;;;;;27.75;49.00;98569.47;5074826;28;19920;-45
2022/09/08 06:53:31;;;;;;;;;;;;;;;27.92;47.72;98561.44;5074152;28;19916;-47
2022/09/08 06:56:02;;;;;;;;;;;;;;;27.81;46.58;98560.94;5074896;28;20369;-51
2022/09/08 06:58:29;;;;;;;;;;;;;;;27.99;47.09;98556.34;5074823;28;19921;-47
2022/09/08 07:00:54;;;;;;;;;;;;;;;28.23;45.81;98558.56;5074700;28;19916;-47
2022/09/08 07:03:38;;;;;;;;;;;;;;;28.66;45.51;98559.56;5074626;28;19921;-47
2022/09/08 07:06:05;;;;;;;;;;;;;;;29.07;44.36;98555.41;5074553;28;19924;-48
2022/09/08 07:08:49;;;;;;;;;;;;;;;29.56;43.91;98558.50;5074579;28;19924;-48
2022/09/08 07:11:33;;;;;;;;;;;;;;;30.80;44.41;98557.03;5056494;28;19916;-48
2022/09/08 07:14:17;;;;;;;;;;;;;;;32.30;42.08;98552.56;5056532;28;19939;-47
2022/09/08 07:16:51;;;;;;;;;;;;;;;33.55;41.08;98553.97;5074389;28;19924;-47
2022/09/08 07:19:26;;;;;;;;;;;;;;;34.44;39.49;98548.72;5074406;28;19916;-49
2022/09/08 07:21:54;;;;;;;;;;;;;;;35.19;38.18;98547.22;5074335;28;19916;-49
2022/09/08 07:24:22;;;;;;;;;;;;;;;35.58;36.90;98538.78;5074212;28;20007;-49
2022/09/08 07:26:59;;;;;;;;;;;;;;;35.74;35.34;98546.78;5073896;28;20715;-50
2022/09/08 07:29:24;;;;;;;;;;;;;;;35.83;35.69;98543.75;5056271;28;20302;-48
2022/09/08 07:31:51;;;;;;;;;;;;;;;36.17;36.33;98545.31;5074131;28;19916;-49
2022/09/08 07:34:21;;;;;;;;;;;;;;;36.43;32.31;98534.63;5074135;28;20015;-50
2022/09/08 07:36:52;;;;;;;;;;;;;;;36.22;33.11;98538.72;5074084;28;19916;-48
2022/09/08 07:39:20;;;;;;;;;;;;;;;36.46;31.73;98540.13;5056127;28;19917;-49
2022/09/08 07:41:51;;;;;;;;;;;;;;;35.85;29.73;98534.03;5073966;28;20369;-49
2022/09/08 07:44:19;;;;;;;;;;;;;;;35.09;30.09;98539.63;5073936;28;19916;-51
2022/09/08 07:46:56;;;;;;;;;;;;;;;34.69;30.37;98536.34;5055785;28;19917;-49
2022/09/08 07:49:40;;;;;;;;;;;;;;;34.65;31.12;98540.91;5073805;28;19947;-51
2022/09/08 07:52:06;;;;;;;;;;;;;;;35.23;30.85;98541.81;5073689;28;20488;-50
2022/09/08 07:54:54;;;;;;;;;;;;;;;36.04;30.69;98545.94;5073617;28;19999;-49
2022/09/08 07:57:40;;;;;;;;;;;;;;;37.08;28.80;98544.91;5055587;28;19920;-47
2022/09/08 08:00:14;;;;;;;;;;;;;;;36.84;28.35;98548.25;5042074;28;20003;-49
2022/09/08 08:03:07;;;;;;;;;;;;;;;36.59;27.49;98544.16;5073573;28;19923;-50
2022/09/08 08:05:42;;;;;;;;;;;;;;;35.60;27.00;98542.69;5072353;28;20374;-49
2022/09/08 08:08:13;;;;;;;;;;;;;;;35.20;28.18;98549.56;5055504;28;20356;-49
2022/09/08 08:10:44;;;;;;;;;;;;;;;35.45;27.16;98537.44;5073307;28;19942;-49
2022/09/08 08:13:27;;;;;;;;;;;;;;;35.30;28.09;98539.19;5073379;28;19961;-50
2022/09/08 08:16:09;;;;;;;;;;;;;;;35.35;26.09;98547.03;5055324;28;20050;-49
2022/09/08 08:18:47;;;;;;;;;;;;;;;34.58;27.11;98543.50;5073256;28;20333;-49
2022/09/08 08:21:28;;;;;;;;;;;;;;;34.64;27.74;98535.81;5055153;28;19921;-48
2022/09/08 08:24:11;;;;;;;;;;;;;;;35.11;26.67;98534.59;5073144;28;19950;-48
2022/09/08 08:26:42;;;;;;;;;;;;;;;35.13;27.03;98546.69;5072796;28;19924;-49
2022/09/08 08:29:18;;;;;;;;;;;;;;;34.93;27.03;98547.97;5073004;28;20022;-49
2022/09/08 08:31:53;;;;;;;;;;;;;;;34.85;26.73;98538.88;5072969;28;19916;-50
2022/09/08 08:34:27;;;;;;;;;;;;;;;35.57;27.14;98542.66;5072820;28;19920;-49
2022/09/08 08:36:55;;;;;;;;;;;;;;;36.96;26.32;98548.72;5072785;28;19958;-50
2022/09/08 08:39:22;;;;;;;;;;;;;;;37.90;24.88;98554.72;5072780;28;20050;-50
2022/09/08 08:42:09;;;;;;;;;;;;;;;39.05;24.72;98550.16;5054811;28;19920;-50
2022/09/08 08:44:43;;;;;;;;;;;;;;;39.87;21.65;98546.38;5072762;28;20011;-49
2022/09/08 08:47:08;;;;;;;;;;;;;;;38.89;23.09;98549.78;5072652;28;20386;-49
2022/09/08 08:49:53;;;;;;;;;;;;;;;38.93;23.35;98543.09;5072631;28;19969;-50
2022/09/08 08:52:21;;;;;;;;;;;;;;;38.73;23.76;98548.22;5072570;28;20003;-49
2022/09/08 08:54:59;;;;;;;;;;;;;;;39.03;24.13;98551.75;5072580;28;20310;-49
2022/09/08 08:57:34;;;;;;;;;;;;;;;39.69;23.40;98548.41;5072507;28;19923;-50
2022/09/08 09:00:08;;;;;;;;;;;;;;;39.14;22.03;98558.00;5072557;28;19954;-51
2022/09/08 09:02:37;;;;;;;;;;;;;;;37.78;22.60;98564.84;5072491;28;19923;-49
2022/09/08 09:05:20;;;;;;;;;;;;;;;37.01;23.30;98553.09;5072329;28;19917;-48
2022/09/08 09:08:02;;;;;;;;;;;;;;;35.90;24.66;98562.94;5054467;28;20349;-49
2022/09/08 09:10:36;;;;;;;;;;;;;;;35.49;25.58;98554.63;5072248;28;19916;-49
2022/09/08 09:13:15;;;;;;;;;;;;;;;35.72;25.74;98562.75;5072325;28;19916;-50
2022/09/08 09:15:40;;;;;;;;;;;;;;;36.37;25.34;98561.53;5072038;28;19958;-50
2022/09/08 09:18:18;;;;;;;;;;;;;;;37.01;25.56;98565.97;5072221;28;19924;-50
2022/09/08 09:20:50;;;;;;;;;;;;;;;37.94;24.71;98556.31;5072314;28;20298;-50
2022/09/08 09:23:29;;;;;;;;;;;;;;;38.76;24.04;98547.44;5072244;28;19966;-50
2022/09/08 09:26:02;;;;;;;;;;;;;;;39.52;21.97;98547.31;5071684;28;20386;-51
2022/09/08 09:28:54;;;;;;;;;;;;;;;40.23;21.95;98546.16;5053726;28;21296;-50
2022/09/08 09:31:20;;;;;;;;;;;;;;;40.52;21.86;98544.00;5043963;28;20313;-50
2022/09/08 09:33:48;;;;;;;;;;;;;;;41.13;20.62;98539.91;5072140;28;19916;-49
2022/09/08 09:36:23;;;;;;;;;;;;;;;41.44;20.25;98545.50;5072054;28;19923;-50
2022/09/08 09:39:07;;;;;;;;;;;;;;;41.66;19.82;98535.81;5054113;28;19927;-50
2022/09/08 09:41:41;;;;;;;;;;;;;;;41.73;19.36;98537.69;5053981;28;20378;-49
2022/09/08 09:44:25;;;;;;;;;;;;;;;41.88;19.64;98530.00;5072080;28;19917;-50
2022/09/08 09:47:14;;;;;;;;;;;;;;;42.29;19.66;98526.25;5071911;28;19917;-52
2022/09/08 09:49:58;;;;;;;;;;;;;;;42.23;19.50;98523.19;5043112;28;20297;-51
2022/09/08 09:52:42;;;;;;;;;;;;;;;42.22;19.07;98516.13;5071941;28;19917;-51
2022/09/08 09:55:07;;;;;;;;;;;;;;;42.66;17.96;98513.44;5071901;28;19924;-50
2022/09/08 09:57:36;;;;;;;;;;;;;;;42.57;16.77;98522.28;5071889;28;19916;-50
2022/09/08 10:00:20;;;;;;;;;;;;;;;42.50;17.24;98514.09;5053857;28;19923;-51
2022/09/08 10:03:21;;;;;;;;;;;;;;;42.46;16.42;98514.19;5071857;28;19917;-49
2022/09/08 10:06:05;;;;;;;;;;;;;;;42.57;16.04;98502.19;5009915;28;19917;-50
2022/09/08 10:08:43;;;;;;;;;;;;;;;42.56;15.89;98506.94;5009942;28;19953;-51
2022/09/08 10:11:24;;;;;;;;;;;;;;;42.18;17.02;98504.38;5009851;28;20528;-49
2022/09/08 10:13:49;;;;;;;;;;;;;;;42.34;17.03;98500.97;5009871;28;19924;-48
2022/09/08 10:16:26;;;;;;;;;;;;;;;42.15;16.79;98499.69;5009853;28;19921;-48
2022/09/08 10:19:11;;;;;;;;;;;;;;;42.39;17.14;98500.47;5009797;28;19948;-49
2022/09/08 10:21:48;;;;;;;;;;;;;;;42.66;16.75;98483.88;5009788;28;20021;-51
2022/09/08 10:24:25;;;;;;;;;;;;;;;41.82;16.64;98488.34;5009851;28;19983;-50
2022/09/08 10:26:53;;;;;;;;;;;;;;;40.23;17.16;98484.91;5009614;28;19928;-50
2022/09/08 10:29:31;;;;;;;;;;;;;;;39.22;17.70;98476.38;5012152;28;20012;-48
2022/09/08 10:31:56;;;;;;;;;;;;;;;38.65;18.73;98477.31;5013267;28;19917;-49
2022/09/08 10:34:28;;;;;;;;;;;;;;;38.93;17.84;98469.00;5013128;28;19967;-49
2022/09/08 10:37:02;;;;;;;;;;;;;;;39.03;18.50;98474.91;5013247;28;20075;-49
2022/09/08 10:39:42;;;;;;;;;;;;;;;39.80;18.14;98474.16;5036387;28;19923;-49
2022/09/08 10:42:11;;;;;;;;;;;;;;;40.69;17.87;98476.25;5075080;28;20254;-49
2022/09/08 10:44:45;;;;;;;;;;;;;;;41.48;17.38;98469.09;5057126;28;20011;-49
2022/09/08 10:47:29;;;;;;;;;;;;;;;41.72;17.16;98475.50;5074984;28;19924;-51
2022/09/08 10:50:07;;;;;;;;;;;;;;;42.12;16.83;98470.19;5074965;28;19917;-51
2022/09/08 10:52:41;;;;;;;;;;;;;;;42.54;16.37;98467.91;5074912;28;20011;-48
2022/09/08 10:55:27;;;;;;;;;;;;;;;42.74;16.08;98467.94;5074884;28;19923;-49
2022/09/08 10:58:11;;;;;;;;;;;;;;;42.40;16.28;98457.91;5074758;28;20378;-51
2022/09/08 11:00:47;;;;;;;;;;;;;;;42.31;16.52;98463.16;5074648;28;19971;-51
2022/09/08 11:03:18;;;;;;;;;;;;;;;41.67;16.49;98468.44;5056754;28;19960;-49
2022/09/08 11:06:10;;;;;;;;;;;;;;;41.26;16.94;98466.63;5074580;28;19916;-49
2022/09/08 11:08:45;;;;;;;;;;;;;;;41.06;16.81;98466.44;5053575;28;20417;-50
2022/09/08 11:11:25;;;;;;;;;;;;;;;41.35;16.35;98455.09;5074594;28;20005;-48
2022/09/08 11:13:51;;;;;;;;;;;;;;;41.62;16.83;98463.44;5074514;28;19970;-49
2022/09/08 11:16:35;;;;;;;;;;;;;;;42.06;16.25;98460.84;5074446;28;20400;-49
2022/09/08 11:19:06;;;;;;;;;;;;;;;41.83;15.77;98459.56;5074408;28;19939;-49
2022/09/08 11:21:37;;;;;;;;;;;;;;;41.44;16.07;98460.88;5074334;28;19964;-50
2022/09/08 11:24:08;;;;;;;;;;;;;;;41.05;16.38;98455.84;5074378;28;19966;-50
2022/09/08 11:26:34;;;;;;;;;;;;;;;40.97;16.08;98460.66;5073991;28;19924;-51
2022/09/08 11:28:59;;;;;;;;;;;;;;;41.06;16.28;98463.69;5074192;28;20290;-50
2022/09/08 11:31:40;;;;;;;;;;;;;;;41.50;16.50;98461.97;5074182;28;19917;-50
2022/09/08 11:34:15;;;;;;;;;;;;;;;41.55;15.59;98457.19;5056166;28;20338;-51
2022/09/08 11:37:04;;;;;;;;;;;;;;;40.89;15.50;98448.94;5073980;28;19923;-51
2022/09/08 11:39:38;;;;;;;;;;;;;;;40.14;16.42;98457.84;5073883;28;19920;-52
2022/09/08 11:42:24;;;;;;;;;;;;;;;39.92;16.09;98443.50;5056067;28;19966;-51
2022/09/08 11:45:05;;;;;;;;;;;;;;;39.72;16.76;98437.72;5073301;28;19962;-52
2022/09/08 11:47:40;;;;;;;;;;;;;;;39.65;16.88;98435.78;5073846;28;19917;-52
2022/09/08 11:50:15;;;;;;;;;;;;;;;39.75;17.08;98434.16;5073843;28;19916;-50
2022/09/08 11:52:45;;;;;;;;;;;;;;;39.81;17.01;98437.28;5073830;28;19916;-52
2022/09/08 11:55:29;;;;;;;;;;;;;;;40.00;17.03;98441.47;5073906;28;19924;-53
2022/09/08 11:57:54;;;;;;;;;;;;;;;39.92;16.63;98441.53;5073672;28;19916;-53
2022/09/08 12:00:38;;;;;;;;;;;;;;;40.06;16.15;98426.88;5073592;28;19972;-54
2022/09/08 12:03:22;;;;;;;;;;;;;;;40.04;16.12;98439.47;5055581;28;19924;-52
2022/09/08 12:06:06;;;;;;;;;;;;;;;39.32;16.62;98434.38;5073336;28;19950;-51
2022/09/08 12:08:34;;;;;;;;;;;;;;;39.17;16.72;98435.63;5073463;28;19963;-52
2022/09/08 12:11:11;;;;;;;;;;;;;;;39.49;16.78;98428.03;5055458;28;20074;-52
2022/09/08 12:13:55;;;;;;;;;;;;;;;40.05;17.00;98433.59;5055426;28;20011;-53
2022/09/08 12:16:23;;;;;;;;;;;;;;;40.43;16.67;98433.69;5073236;28;19917;-53
2022/09/08 12:18:59;;;;;;;;;;;;;;;40.44;16.11;98428.94;5055333;28;19974;-53
2022/09/08 12:21:42;;;;;;;;;;;;;;;40.02;16.47;98428.88;5073185;28;20475;-51
2022/09/08 12:24:11;;;;;;;;;;;;;;;39.59;16.88;98433.88;5073177;28;19923;-52
2022/09/08 12:26:40;;;;;;;;;;;;;;;39.25;16.94;98429.72;5072773;28;19927;-51
2022/09/08 12:29:14;;;;;;;;;;;;;;;38.85;16.63;98433.75;5073006;28;20406;-52
2022/09/08 12:31:58;;;;;;;;;;;;;;;38.25;16.97;98432.66;5073073;28;19917;-50
2022/09/08 12:34:24;;;;;;;;;;;;;;;37.61;17.50;98434.16;5072974;28;20413;-49
2022/09/08 12:36:50;;;;;;;;;;;;;;;37.19;18.06;98432.81;5054942;28;19917;-50
2022/09/08 12:39:34;;;;;;;;;;;;;;;37.05;18.24;98438.19;5072852;28;19924;-50
2022/09/08 12:42:00;;;;;;;;;;;;;;;37.34;18.62;98425.41;5072812;28;19966;-50
2022/09/08 12:44:31;;;;;;;;;;;;;;;37.61;18.52;98427.88;5072782;28;19921;-49
2022/09/08 12:47:19;;;;;;;;;;;;;;;38.02;18.41;98424.81;5054705;28;20439;-50
2022/09/08 12:50:05;;;;;;;;;;;;;;;38.20;18.11;98430.31;5042258;28;19927;-50
2022/09/08 12:52:44;;;;;;;;;;;;;;;37.23;18.52;98424.59;5043388;28;20454;-50
2022/09/08 12:55:16;;;;;;;;;;;;;;;36.05;19.29;98428.09;5072544;28;19916;-49
2022/09/08 12:57:46;;;;;;;;;;;;;;;35.05;19.63;98416.84;5072487;28;19923;-50
2022/09/08 13:00:16;;;;;;;;;;;;;;;34.38;20.07;98428.34;5072465;28;19916;-49
2022/09/08 13:03:08;;;;;;;;;;;;;;;33.89;20.41;98418.97;5072532;28;19916;-50
2022/09/08 13:05:57;;;;;;;;;;;;;;;33.25;21.39;98418.50;5048906;28;19916;-49
2022/09/08 13:08:31;;;;;;;;;;;;;;;32.43;22.46;98422.88;5046312;28;19920;-48
2022/09/08 13:11:04;;;;;;;;;;;;;;;31.60;23.24;98422.72;5072431;28;19917;-50
2022/09/08 13:13:43;;;;;;;;;;;;;;;30.86;24.16;98422.88;5072395;28;19965;-50